sensor_id;sensor_type;location;lat;lon;timestamp;pressure;altitude;pressure_sealevel;temperature;humidity
53671;BME280;39571;48.612;8.088;2022-11-23T09:10:59;98553.50;;;8.20;100.00
53671;BME280;39571;48.612;8.088;2022-11-23T09:13:25;98550.47;;;9.06;100.00
53671;BME280;39571;48.612;8.088;2022-11-23T09:15:50;98543.78;;;9.87;96.35
53671;BME280;39571;48.612;8.088;2022-11-23T09:18:15;98536.78;;;10.44;93.67
53671;BME280;39571;48.612;8.088;2022-11-23T09:20:41;98547.09;;;11.00;90.10
53671;BME280;39571;48.612;8.088;2022-11-23T09:23:07;98543.88;;;11.41;82.83
53671;BME280;39571;48.612;8.088;2022-11-23T09:25:33;98546.41;;;11.68;79.50
53671;BME280;39571;48.612;8.088;2022-11-23T09:27:59;98548.13;;;11.69;76.70
53671;BME280;39571;48.612;8.088;2022-11-23T09:30:26;98550.34;;;11.79;79.13
53671;BME280;39571;48.612;8.088;2022-11-23T09:32:51;98550.47;;;11.76;74.47
53671;BME280;39571;48.612;8.088;2022-11-23T09:35:16;98547.06;;;11.74;74.65
53671;BME280;39571;48.612;8.088;2022-11-23T09:37:42;98550.16;;;11.60;73.40
53671;BME280;39571;48.612;8.088;2022-11-23T09:40:13;98546.63;;;11.61;71.94
53671;BME280;39571;48.612;8.088;2022-11-23T09:42:52;98550.59;;;11.48;72.00
53671;BME280;39571;48.612;8.088;2022-11-23T09:45:33;98550.50;;;11.51;68.62
53671;BME280;39571;48.612;8.088;2022-11-23T09:50:49;98547.47;;;13.54;61.40
53671;BME280;39571;48.612;8.088;2022-11-23T09:53:32;98538.75;;;15.33;53.93
53671;BME280;39571;48.612;8.088;2022-11-23T09:55:58;98531.31;;;17.42;46.78
53671;BME280;39571;48.612;8.088;2022-11-23T09:58:29;98523.88;;;18.73;42.35
53671;BME280;39571;48.612;8.088;2022-11-23T10:01:03;98528.72;;;19.57;42.76
53671;BME280;39571;48.612;8.088;2022-11-23T10:03:40;98527.94;;;20.42;40.76
53671;BME280;39571;48.612;8.088;2022-11-23T10:07:23;98525.16;;;20.67;37.42
53671;BME280;39571;48.612;8.088;2022-11-23T10:10:04;98527.16;;;21.46;37.38
53671;BME280;39571;48.612;8.088;2022-11-23T10:15:26;98520.28;;;18.74;44.46
53671;BME280;39571;48.612;8.088;2022-11-23T10:18:02;98516.88;;;17.33;49.59
53671;BME280;39571;48.612;8.088;2022-11-23T10:23:39;98523.25;;;16.24;52.91
53671;BME280;39571;48.612;8.088;2022-11-23T10:26:13;98522.41;;;16.08;54.77
53671;BME280;39571;48.612;8.088;2022-11-23T10:28:39;98522.72;;;15.71;56.72
53671;BME280;39571;48.612;8.088;2022-11-23T10:31:17;98514.06;;;15.69;58.87
53671;BME280;39571;48.612;8.088;2022-11-23T10:33:48;98512.31;;;15.35;59.78
53671;BME280;39571;48.612;8.088;2022-11-23T10:36:14;98508.41;;;15.09;61.56
53671;BME280;39571;48.612;8.088;2022-11-23T10:38:40;98508.84;;;15.00;62.96
53671;BME280;39571;48.612;8.088;2022-11-23T10:41:11;98504.38;;;14.85;62.35
53671;BME280;39571;48.612;8.088;2022-11-23T10:43:49;98501.59;;;14.71;62.45
53671;BME280;39571;48.612;8.088;2022-11-23T10:52:04;98493.78;;;14.33;64.52
53671;BME280;39571;48.612;8.088;2022-11-23T10:54:38;98486.47;;;14.21;64.96
53671;BME280;39571;48.612;8.088;2022-11-23T10:57:31;98475.13;;;14.02;64.23
53671;BME280;39571;48.612;8.088;2022-11-23T11:02:42;98472.31;;;13.88;67.08
53671;BME280;39571;48.612;8.088;2022-11-23T11:05:35;98472.50;;;13.83;63.70
53671;BME280;39571;48.612;8.088;2022-11-23T11:08:15;98469.72;;;13.86;63.87
53671;BME280;39571;48.612;8.088;2022-11-23T11:10:42;98469.16;;;13.80;64.73
53671;BME280;39571;48.612;8.088;2022-11-23T11:13:26;98466.34;;;13.84;64.65
53671;BME280;39571;48.612;8.088;2022-11-23T11:16:03;98461.78;;;13.88;66.16
53671;BME280;39571;48.612;8.088;2022-11-23T11:18:35;98467.50;;;13.79;63.85
53671;BME280;39571;48.612;8.088;2022-11-23T11:23:29;98457.41;;;13.51;63.16
53671;BME280;39571;48.612;8.088;2022-11-23T11:26:05;98451.00;;;13.56;65.31
53671;BME280;39571;48.612;8.088;2022-11-23T11:28:37;98441.69;;;13.49;57.99
53671;BME280;39571;48.612;8.088;2022-11-23T11:31:24;98443.75;;;13.61;59.25
53671;BME280;39571;48.612;8.088;2022-11-23T11:36:43;98443.03;;;13.39;53.94
53671;BME280;39571;48.612;8.088;2022-11-23T11:39:29;98442.03;;;13.42;52.95
53671;BME280;39571;48.612;8.088;2022-11-23T11:41:59;98441.31;;;13.38;51.94
53671;BME280;39571;48.612;8.088;2022-11-23T11:44:26;98434.63;;;13.31;52.93
53671;BME280;39571;48.612;8.088;2022-11-23T11:46:59;98427.91;;;13.26;50.34
53671;BME280;39571;48.612;8.088;2022-11-23T11:49:32;98431.78;;;13.17;53.62
53671;BME280;39571;48.612;8.088;2022-11-23T11:52:09;98430.75;;;13.01;51.69
53671;BME280;39571;48.612;8.088;2022-11-23T11:55:16;98426.81;;;13.11;52.45
53671;BME280;39571;48.612;8.088;2022-11-23T11:57:55;98426.81;;;13.11;51.48
53671;BME280;39571;48.612;8.088;2022-11-23T12:00:23;98417.88;;;13.15;52.25
53671;BME280;39571;48.612;8.088;2022-11-23T12:03:13;98414.72;;;13.27;51.39
53671;BME280;39571;48.612;8.088;2022-11-23T12:05:47;98418.88;;;13.31;53.44
53671;BME280;39571;48.612;8.088;2022-11-23T12:08:15;98410.06;;;13.32;51.26
53671;BME280;39571;48.612;8.088;2022-11-23T12:10:53;98410.75;;;13.17;51.91
53671;BME280;39571;48.612;8.088;2022-11-23T12:13:27;98408.03;;;13.20;52.19
53671;BME280;39571;48.612;8.088;2022-11-23T12:18:45;98403.53;;;13.22;50.11
53671;BME280;39571;48.612;8.088;2022-11-23T12:21:25;98405.97;;;13.27;49.94
53671;BME280;39571;48.612;8.088;2022-11-23T12:26:44;98396.88;;;13.15;49.32
53671;BME280;39571;48.612;8.088;2022-11-23T12:32:35;98393.59;;;13.10;48.08
53671;BME280;39571;48.612;8.088;2022-11-23T12:37:27;98381.66;;;13.03;50.81
53671;BME280;39571;48.612;8.088;2022-11-23T12:40:26;98382.28;;;13.08;49.44
53671;BME280;39571;48.612;8.088;2022-11-23T12:43:01;98384.91;;;13.08;48.78
53671;BME280;39571;48.612;8.088;2022-11-23T12:45:55;98384.31;;;13.01;49.14
53671;BME280;39571;48.612;8.088;2022-11-23T12:49:00;98380.22;;;12.96;48.19
